sensor_id;sensor_type;location;lat;lon;timestamp;pressure;altitude;pressure_sealevel;temperature;humidity
69772;BME280;57046;45.988;18.664;2022-09-09T00:03:44;100403.09;;;19.59;100.00
69772;BME280;57046;45.988;18.664;2022-09-09T00:06:21;100415.22;;;19.61;100.00
69772;BME280;57046;45.988;18.664;2022-09-09T00:09:03;100417.16;;;19.57;100.00
69772;BME280;57046;45.988;18.664;2022-09-09T00:16:45;100413.25;;;19.58;100.00
69772;BME280;57046;45.988;18.664;2022-09-09T00:19:23;100408.91;;;19.54;100.00
69772;BME280;57046;45.988;18.664;2022-09-09T00:22:08;100403.00;;;19.48;100.00
69772;BME280;57046;45.988;18.664;2022-09-09T00:24:44;100406.53;;;19.49;100.00
69772;BME280;57046;45.988;18.664;2022-09-09T00:27:48;100420.59;;;19.47;100.00
69772;BME280;57046;45.988;18.664;2022-09-09T00:32:40;100407.31;;;19.53;100.00
69772;BME280;57046;45.988;18.664;2022-09-09T00:37:37;100428.47;;;19.49;100.00
69772;BME280;57046;45.988;18.664;2022-09-09T00:40:35;100431.56;;;19.47;100.00
69772;BME280;57046;45.988;18.664;2022-09-09T00:48:13;100453.88;;;19.42;100.00
69772;BME280;57046;45.988;18.664;2022-09-09T00:51:01;100451.50;;;19.41;100.00
69772;BME280;57046;45.988;18.664;2022-09-09T00:56:18;100460.44;;;19.38;100.00
69772;BME280;57046;45.988;18.664;2022-09-09T00:58:57;100466.22;;;19.29;100.00
69772;BME280;57046;45.988;18.664;2022-09-09T01:01:25;100463.06;;;19.23;100.00
69772;BME280;57046;45.988;18.664;2022-09-09T01:03:55;100480.66;;;19.22;100.00
69772;BME280;57046;45.988;18.664;2022-09-09T01:06:48;100483.81;;;19.24;100.00
69772;BME280;57046;45.988;18.664;2022-09-09T01:12:25;100482.59;;;19.18;100.00
69772;BME280;57046;45.988;18.664;2022-09-09T01:14:56;100482.25;;;19.23;100.00
69772;BME280;57046;45.988;18.664;2022-09-09T01:17:32;100486.88;;;19.16;100.00
69772;BME280;57046;45.988;18.664;2022-09-09T01:22:43;100489.63;;;19.19;100.00
69772;BME280;57046;45.988;18.664;2022-09-09T01:27:51;100478.31;;;19.21;100.00
69772;BME280;57046;45.988;18.664;2022-09-09T01:30:18;100468.44;;;19.13;100.00
69772;BME280;57046;45.988;18.664;2022-09-09T03:48:11;100498.91;;;18.71;100.00
69772;BME280;57046;45.988;18.664;2022-09-09T03:50:55;100498.91;;;18.71;100.00
69772;BME280;57046;45.988;18.664;2022-09-09T03:53:39;100509.03;;;18.67;100.00
69772;BME280;57046;45.988;18.664;2022-09-09T03:56:24;100501.47;;;18.57;100.00
69772;BME280;57046;45.988;18.664;2022-09-09T03:59:08;100518.44;;;18.69;100.00
69772;BME280;57046;45.988;18.664;2022-09-09T04:01:52;100504.34;;;18.67;100.00
69772;BME280;57046;45.988;18.664;2022-09-09T04:04:36;100511.34;;;18.65;100.00
69772;BME280;57046;45.988;18.664;2022-09-09T04:07:23;100498.03;;;18.63;100.00
69772;BME280;57046;45.988;18.664;2022-09-09T04:10:09;100502.72;;;18.63;100.00
69772;BME280;57046;45.988;18.664;2022-09-09T04:12:53;100499.16;;;18.59;100.00
69772;BME280;57046;45.988;18.664;2022-09-09T04:15:37;100505.78;;;18.58;100.00
69772;BME280;57046;45.988;18.664;2022-09-09T04:33:52;100565.06;;;18.47;100.00
69772;BME280;57046;45.988;18.664;2022-09-09T04:36:36;100567.50;;;18.52;100.00
69772;BME280;57046;45.988;18.664;2022-09-09T04:39:20;100568.03;;;18.61;100.00
69772;BME280;57046;45.988;18.664;2022-09-09T04:42:05;100584.13;;;18.66;100.00
69772;BME280;57046;45.988;18.664;2022-09-09T04:44:49;100572.31;;;18.62;100.00
69772;BME280;57046;45.988;18.664;2022-09-09T04:50:17;100572.47;;;18.72;100.00
69772;BME280;57046;45.988;18.664;2022-09-09T05:04:09;100577.44;;;18.63;100.00
69772;BME280;57046;45.988;18.664;2022-09-09T05:06:55;100592.19;;;18.85;100.00
69772;BME280;57046;45.988;18.664;2022-09-09T05:09:41;100589.63;;;18.69;100.00
69772;BME280;57046;45.988;18.664;2022-09-09T05:12:26;100585.22;;;18.61;100.00
69772;BME280;57046;45.988;18.664;2022-09-09T05:15:12;100583.72;;;18.64;100.00
69772;BME280;57046;45.988;18.664;2022-09-09T05:17:37;100594.75;;;18.71;100.00
69772;BME280;57046;45.988;18.664;2022-09-09T05:20:03;100586.81;;;18.62;100.00
69772;BME280;57046;45.988;18.664;2022-09-09T05:22:28;100588.34;;;18.60;100.00
69772;BME280;57046;45.988;18.664;2022-09-09T05:24:54;100586.66;;;18.52;100.00
69772;BME280;57046;45.988;18.664;2022-09-09T05:27:19;100584.72;;;18.52;100.00
69772;BME280;57046;45.988;18.664;2022-09-09T05:29:45;100587.44;;;18.52;100.00
69772;BME280;57046;45.988;18.664;2022-09-09T05:32:11;100582.69;;;18.49;100.00
69772;BME280;57046;45.988;18.664;2022-09-09T05:34:36;100588.25;;;18.53;100.00
69772;BME280;57046;45.988;18.664;2022-09-09T05:37:02;100580.03;;;18.53;100.00
69772;BME280;57046;45.988;18.664;2022-09-09T05:39:27;100584.41;;;18.57;100.00
69772;BME280;57046;45.988;18.664;2022-09-09T05:41:52;100574.59;;;18.56;100.00
69772;BME280;57046;45.988;18.664;2022-09-09T05:44:18;100579.78;;;18.65;100.00
69772;BME280;57046;45.988;18.664;2022-09-09T05:46:43;100588.47;;;18.70;100.00
69772;BME280;57046;45.988;18.664;2022-09-09T05:49:08;100595.66;;;18.82;100.00
69772;BME280;57046;45.988;18.664;2022-09-09T05:51:33;100602.28;;;18.77;100.00
69772;BME280;57046;45.988;18.664;2022-09-09T05:53:59;100602.97;;;18.71;100.00
69772;BME280;57046;45.988;18.664;2022-09-09T05:56:26;100581.72;;;18.64;100.00
69772;BME280;57046;45.988;18.664;2022-09-09T05:58:53;100586.44;;;18.64;100.00
69772;BME280;57046;45.988;18.664;2022-09-09T06:01:20;100589.22;;;18.67;100.00
69772;BME280;57046;45.988;18.664;2022-09-09T06:03:47;100585.69;;;18.67;100.00
69772;BME280;57046;45.988;18.664;2022-09-09T06:06:15;100584.56;;;18.71;100.00
69772;BME280;57046;45.988;18.664;2022-09-09T06:08:42;100590.38;;;18.66;100.00
69772;BME280;57046;45.988;18.664;2022-09-09T06:11:16;100588.44;;;18.67;100.00
69772;BME280;57046;45.988;18.664;2022-09-09T06:13:42;100595.91;;;18.70;100.00
69772;BME280;57046;45.988;18.664;2022-09-09T06:16:10;100604.63;;;18.79;100.00
69772;BME280;57046;45.988;18.664;2022-09-09T06:18:35;100596.44;;;18.83;100.00
69772;BME280;57046;45.988;18.664;2022-09-09T06:21:03;100590.53;;;18.77;100.00
69772;BME280;57046;45.988;18.664;2022-09-09T06:23:30;100589.81;;;18.84;100.00
69772;BME280;57046;45.988;18.664;2022-09-09T06:26:05;100585.22;;;18.91;100.00
69772;BME280;57046;45.988;18.664;2022-09-09T06:28:36;100576.50;;;18.82;100.00
69772;BME280;57046;45.988;18.664;2022-09-09T06:31:04;100585.94;;;18.88;100.00
69772;BME280;57046;45.988;18.664;2022-09-09T06:33:37;100596.19;;;18.91;100.00
69772;BME280;57046;45.988;18.664;2022-09-09T06:36:03;100595.53;;;19.01;100.00
69772;BME280;57046;45.988;18.664;2022-09-09T06:38:29;100595.19;;;19.06;100.00
69772;BME280;57046;45.988;18.664;2022-09-09T06:40:56;100600.72;;;19.10;100.00
69772;BME280;57046;45.988;18.664;2022-09-09T06:43:22;100588.56;;;19.07;100.00
69772;BME280;57046;45.988;18.664;2022-09-09T06:45:58;100584.66;;;19.08;100.00
69772;BME280;57046;45.988;18.664;2022-09-09T06:48:24;100572.94;;;19.11;100.00
69772;BME280;57046;45.988;18.664;2022-09-09T06:50:50;100579.69;;;19.21;100.00
69772;BME280;57046;45.988;18.664;2022-09-09T06:53:17;100593.53;;;19.31;100.00
69772;BME280;57046;45.988;18.664;2022-09-09T06:55:42;100584.94;;;19.37;100.00
69772;BME280;57046;45.988;18.664;2022-09-09T06:58:08;100588.28;;;19.53;100.00
69772;BME280;57046;45.988;18.664;2022-09-09T07:00:34;100598.97;;;19.65;100.00
69772;BME280;57046;45.988;18.664;2022-09-09T07:02:59;100592.75;;;19.68;100.00
69772;BME280;57046;45.988;18.664;2022-09-09T07:05:24;100593.59;;;19.75;100.00
69772;BME280;57046;45.988;18.664;2022-09-09T07:07:50;100588.19;;;19.83;100.00
69772;BME280;57046;45.988;18.664;2022-09-09T07:10:15;100583.06;;;19.81;100.00
69772;BME280;57046;45.988;18.664;2022-09-09T07:12:41;100570.94;;;19.82;100.00
69772;BME280;57046;45.988;18.664;2022-09-09T07:15:06;100571.00;;;19.89;100.00
69772;BME280;57046;45.988;18.664;2022-09-09T07:17:32;100579.69;;;19.98;100.00
69772;BME280;57046;45.988;18.664;2022-09-09T07:19:57;100566.00;;;20.02;100.00
69772;BME280;57046;45.988;18.664;2022-09-09T07:22:22;100563.22;;;19.98;98.81
69772;BME280;57046;45.988;18.664;2022-09-09T07:24:48;100569.91;;;20.04;100.00
69772;BME280;57046;45.988;18.664;2022-09-09T07:27:13;100569.16;;;20.04;95.89
69772;BME280;57046;45.988;18.664;2022-09-09T07:29:38;100560.16;;;20.07;97.58
69772;BME280;57046;45.988;18.664;2022-09-09T07:32:04;100562.94;;;20.10;100.00
69772;BME280;57046;45.988;18.664;2022-09-09T07:34:29;100568.03;;;20.15;99.97
69772;BME280;57046;45.988;18.664;2022-09-09T07:36:54;100565.31;;;20.15;98.43
69772;BME280;57046;45.988;18.664;2022-09-09T07:39:20;100557.91;;;20.23;100.00
69772;BME280;57046;45.988;18.664;2022-09-09T07:41:47;100559.88;;;20.26;98.88
69772;BME280;57046;45.988;18.664;2022-09-09T07:44:16;100563.09;;;20.35;99.26
69772;BME280;57046;45.988;18.664;2022-09-09T07:46:42;100564.34;;;20.41;97.37
69772;BME280;57046;45.988;18.664;2022-09-09T07:49:08;100564.34;;;20.45;92.90
69772;BME280;57046;45.988;18.664;2022-09-09T07:51:36;100561.63;;;20.52;92.03
69772;BME280;57046;45.988;18.664;2022-09-09T07:54:06;100555.03;;;20.63;94.37
69772;BME280;57046;45.988;18.664;2022-09-09T07:56:33;100561.72;;;20.69;88.53
69772;BME280;57046;45.988;18.664;2022-09-09T07:58:59;100560.59;;;20.77;89.80
69772;BME280;57046;45.988;18.664;2022-09-09T08:01:30;100563.72;;;20.79;83.87
69772;BME280;57046;45.988;18.664;2022-09-09T08:04:16;100555.53;;;20.90;85.07
69772;BME280;57046;45.988;18.664;2022-09-09T08:06:53;100548.91;;;21.02;84.82
69772;BME280;57046;45.988;18.664;2022-09-09T08:09:19;100542.69;;;21.15;84.97
69772;BME280;57046;45.988;18.664;2022-09-09T08:11:45;100550.94;;;21.19;82.80
69772;BME280;57046;45.988;18.664;2022-09-09T08:14:11;100552.53;;;21.27;83.08
69772;BME280;57046;45.988;18.664;2022-09-09T08:16:40;100550.19;;;21.36;81.02
69772;BME280;57046;45.988;18.664;2022-09-09T08:19:05;100543.13;;;21.46;81.50
69772;BME280;57046;45.988;18.664;2022-09-09T08:21:31;100543.53;;;21.58;78.32
69772;BME280;57046;45.988;18.664;2022-09-09T08:23:59;100540.41;;;21.67;80.52
69772;BME280;57046;45.988;18.664;2022-09-09T08:26:27;100547.47;;;21.78;79.73
69772;BME280;57046;45.988;18.664;2022-09-09T08:28:54;100554.16;;;21.88;78.20
69772;BME280;57046;45.988;18.664;2022-09-09T08:31:28;100553.38;;;21.73;77.43
69772;BME280;57046;45.988;18.664;2022-09-09T08:33:55;100547.88;;;21.77;76.99
69772;BME280;57046;45.988;18.664;2022-09-09T08:36:23;100546.69;;;21.89;75.53
69772;BME280;57046;45.988;18.664;2022-09-09T08:38:50;100535.69;;;21.92;77.31
69772;BME280;57046;45.988;18.664;2022-09-09T08:41:22;100547.50;;;22.03;74.70
69772;BME280;57046;45.988;18.664;2022-09-09T08:46:42;100569.09;;;22.15;74.24
69772;BME280;57046;45.988;18.664;2022-09-09T08:51:54;100561.13;;;22.70;69.75
69772;BME280;57046;45.988;18.664;2022-09-09T08:54:22;100563.44;;;22.86;71.18
69772;BME280;57046;45.988;18.664;2022-09-09T08:56:48;100547.56;;;23.08;71.30
69772;BME280;57046;45.988;18.664;2022-09-09T08:59:17;100562.00;;;23.37;73.21
69772;BME280;57046;45.988;18.664;2022-09-09T09:02:16;100561.84;;;23.61;70.67
69772;BME280;57046;45.988;18.664;2022-09-09T09:07:24;100553.38;;;23.86;69.41
69772;BME280;57046;45.988;18.664;2022-09-09T09:09:58;100550.47;;;24.00;68.86
69772;BME280;57046;45.988;18.664;2022-09-09T09:12:32;100550.72;;;24.20;70.19
69772;BME280;57046;45.988;18.664;2022-09-09T09:15:00;100549.31;;;24.01;67.93
69772;BME280;57046;45.988;18.664;2022-09-09T09:17:28;100546.72;;;23.80;68.68
69772;BME280;57046;45.988;18.664;2022-09-09T09:19:53;100546.16;;;23.99;68.60
69772;BME280;57046;45.988;18.664;2022-09-09T09:22:23;100546.91;;;24.03;65.95
69772;BME280;57046;45.988;18.664;2022-09-09T09:27:40;100547.94;;;24.20;63.44
69772;BME280;57046;45.988;18.664;2022-09-09T09:30:15;100550.38;;;24.14;63.81
69772;BME280;57046;45.988;18.664;2022-09-09T09:32:56;100544.06;;;24.14;62.84
69772;BME280;57046;45.988;18.664;2022-09-09T09:35:22;100544.19;;;24.41;63.42
69772;BME280;57046;45.988;18.664;2022-09-09T09:37:48;100547.53;;;24.59;62.63
69772;BME280;57046;45.988;18.664;2022-09-09T09:40:21;100531.22;;;24.34;59.86
69772;BME280;57046;45.988;18.664;2022-09-09T09:42:55;100534.78;;;24.35;59.55
69772;BME280;57046;45.988;18.664;2022-09-09T09:45:40;100535.66;;;24.62;62.12
69772;BME280;57046;45.988;18.664;2022-09-09T09:48:10;100542.34;;;24.64;60.52
69772;BME280;57046;45.988;18.664;2022-09-09T09:50:53;100534.56;;;24.56;59.46
69772;BME280;57046;45.988;18.664;2022-09-09T09:53:24;100539.59;;;24.61;60.38
69772;BME280;57046;45.988;18.664;2022-09-09T09:55:59;100537.41;;;24.79;63.81
69772;BME280;57046;45.988;18.664;2022-09-09T09:58:29;100530.03;;;25.03;62.92
69772;BME280;57046;45.988;18.664;2022-09-09T10:00:55;100534.09;;;25.21;62.56
69772;BME280;57046;45.988;18.664;2022-09-09T10:03:30;100545.50;;;25.27;61.89
69772;BME280;57046;45.988;18.664;2022-09-09T10:05:56;100533.94;;;25.32;62.61
69772;BME280;57046;45.988;18.664;2022-09-09T10:08:26;100542.09;;;25.43;59.04
69772;BME280;57046;45.988;18.664;2022-09-09T10:13:32;100539.06;;;25.60;54.87
69772;BME280;57046;45.988;18.664;2022-09-09T10:16:08;100534.63;;;25.66;57.27
69772;BME280;57046;45.988;18.664;2022-09-09T10:18:47;100532.75;;;25.60;55.99
69772;BME280;57046;45.988;18.664;2022-09-09T10:27:04;100520.81;;;25.86;56.38
69772;BME280;57046;45.988;18.664;2022-09-09T10:35:33;100515.53;;;26.38;56.41
69772;BME280;57046;45.988;18.664;2022-09-09T10:38:05;100521.44;;;26.40;54.41
69772;BME280;57046;45.988;18.664;2022-09-09T10:56:48;100514.81;;;26.93;52.21
69772;BME280;57046;45.988;18.664;2022-09-09T10:59:19;100498.72;;;27.04;47.32
69772;BME280;57046;45.988;18.664;2022-09-09T11:01:51;100504.13;;;27.11;52.35
69772;BME280;57046;45.988;18.664;2022-09-09T11:04:25;100494.22;;;27.10;48.87
69772;BME280;57046;45.988;18.664;2022-09-09T11:06:54;100499.28;;;27.31;51.35
69772;BME280;57046;45.988;18.664;2022-09-09T11:09:23;100492.25;;;27.43;51.64
69772;BME280;57046;45.988;18.664;2022-09-09T11:11:54;100494.78;;;27.70;48.20
69772;BME280;57046;45.988;18.664;2022-09-09T11:17:01;100490.19;;;27.63;50.29
69772;BME280;57046;45.988;18.664;2022-09-09T11:19:39;100486.72;;;27.59;46.30
69772;BME280;57046;45.988;18.664;2022-09-09T11:24:54;100484.19;;;27.81;44.56
69772;BME280;57046;45.988;18.664;2022-09-09T11:30:26;100481.50;;;27.77;48.76
69772;BME280;57046;45.988;18.664;2022-09-09T11:38:54;100476.00;;;28.06;44.38
69772;BME280;57046;45.988;18.664;2022-09-09T11:41:21;100473.63;;;28.05;44.88
69772;BME280;57046;45.988;18.664;2022-09-09T11:46:15;100457.88;;;28.56;42.56
69772;BME280;57046;45.988;18.664;2022-09-09T11:48:43;100471.72;;;28.72;44.35
69772;BME280;57046;45.988;18.664;2022-09-09T11:51:25;100473.31;;;28.86;42.72
69772;BME280;57046;45.988;18.664;2022-09-09T11:53:55;100474.50;;;28.72;43.29
69772;BME280;57046;45.988;18.664;2022-09-09T11:56:44;100453.28;;;28.78;42.97
69772;BME280;57046;45.988;18.664;2022-09-09T11:59:30;100448.16;;;28.89;45.80
69772;BME280;57046;45.988;18.664;2022-09-09T12:02:10;100445.59;;;28.82;43.42
69772;BME280;57046;45.988;18.664;2022-09-09T12:04:40;100437.31;;;29.16;44.66
69772;BME280;57046;45.988;18.664;2022-09-09T12:09:50;100434.97;;;29.40;41.76
69772;BME280;57046;45.988;18.664;2022-09-09T12:17:41;100427.06;;;29.51;41.98
69772;BME280;57046;45.988;18.664;2022-09-09T12:20:26;100437.03;;;29.61;39.01
69772;BME280;57046;45.988;18.664;2022-09-09T12:23:19;100434.06;;;29.56;40.96
69772;BME280;57046;45.988;18.664;2022-09-09T12:29:23;100415.38;;;29.78;40.22
69772;BME280;57046;45.988;18.664;2022-09-09T12:32:04;100412.53;;;29.91;38.19
69772;BME280;57046;45.988;18.664;2022-09-09T12:37:54;100408.19;;;30.11;39.22
69772;BME280;57046;45.988;18.664;2022-09-09T12:40:26;100411.25;;;30.04;39.63
69772;BME280;57046;45.988;18.664;2022-09-09T12:42:52;100402.03;;;30.16;42.86
69772;BME280;57046;45.988;18.664;2022-09-09T12:45:19;100401.78;;;30.23;39.20
69772;BME280;57046;45.988;18.664;2022-09-09T12:47:55;100390.75;;;30.20;40.21
69772;BME280;57046;45.988;18.664;2022-09-09T12:50:23;100378.41;;;30.30;39.09
69772;BME280;57046;45.988;18.664;2022-09-09T12:52:51;100379.00;;;30.47;38.01
69772;BME280;57046;45.988;18.664;2022-09-09T12:55:25;100376.44;;;30.61;37.41
69772;BME280;57046;45.988;18.664;2022-09-09T12:57:52;100379.63;;;30.51;39.66
69772;BME280;57046;45.988;18.664;2022-09-09T13:00:21;100366.75;;;30.44;38.06
69772;BME280;57046;45.988;18.664;2022-09-09T13:02:52;100366.88;;;30.41;39.73
69772;BME280;57046;45.988;18.664;2022-09-09T13:05:25;100368.69;;;30.35;38.08
69772;BME280;57046;45.988;18.664;2022-09-09T13:07:51;100374.00;;;30.42;40.12
69772;BME280;57046;45.988;18.664;2022-09-09T13:10:26;100362.41;;;30.52;37.20
69772;BME280;57046;45.988;18.664;2022-09-09T13:12:54;100359.69;;;30.61;37.24
69772;BME280;57046;45.988;18.664;2022-09-09T13:15:24;100353.31;;;30.61;37.18
69772;BME280;57046;45.988;18.664;2022-09-09T13:18:04;100344.84;;;30.73;36.15
69772;BME280;57046;45.988;18.664;2022-09-09T13:20:31;100357.69;;;30.71;36.69
69772;BME280;57046;45.988;18.664;2022-09-09T13:22:57;100346.31;;;30.96;37.16
69772;BME280;57046;45.988;18.664;2022-09-09T13:25:29;100341.25;;;30.73;39.60
69772;BME280;57046;45.988;18.664;2022-09-09T13:28:00;100333.56;;;30.15;37.66
69772;BME280;57046;45.988;18.664;2022-09-09T13:33:00;100326.06;;;29.60;37.05
69772;BME280;57046;45.988;18.664;2022-09-09T13:35:26;100326.47;;;29.37;37.91
69772;BME280;57046;45.988;18.664;2022-09-09T13:37:51;100327.41;;;29.21;38.23
69772;BME280;57046;45.988;18.664;2022-09-09T13:40:19;100318.19;;;29.11;39.10
69772;BME280;57046;45.988;18.664;2022-09-09T13:42:44;100318.16;;;29.24;40.67
69772;BME280;57046;45.988;18.664;2022-09-09T13:45:22;100309.59;;;29.18;38.81
69772;BME280;57046;45.988;18.664;2022-09-09T13:47:49;100307.50;;;29.10;41.98
69772;BME280;57046;45.988;18.664;2022-09-09T13:50:27;100300.13;;;28.82;42.43
69772;BME280;57046;45.988;18.664;2022-09-09T13:52:58;100294.53;;;28.94;41.61
69772;BME280;57046;45.988;18.664;2022-09-09T13:55:26;100290.34;;;29.11;39.15
69772;BME280;57046;45.988;18.664;2022-09-09T14:00:23;100291.75;;;28.94;40.36
69772;BME280;57046;45.988;18.664;2022-09-09T14:02:49;100284.38;;;29.35;38.55
69772;BME280;57046;45.988;18.664;2022-09-09T14:05:16;100280.56;;;29.85;39.60
69772;BME280;57046;45.988;18.664;2022-09-09T14:07:43;100276.84;;;30.18;37.52
69772;BME280;57046;45.988;18.664;2022-09-09T14:10:09;100276.19;;;30.05;35.68
69772;BME280;57046;45.988;18.664;2022-09-09T14:12:34;100273.19;;;29.25;38.72
69772;BME280;57046;45.988;18.664;2022-09-09T14:15:00;100270.81;;;28.90;37.75
69772;BME280;57046;45.988;18.664;2022-09-09T14:17:25;100273.63;;;28.52;39.44
69772;BME280;57046;45.988;18.664;2022-09-09T14:19:51;100258.06;;;28.67;42.79
69772;BME280;57046;45.988;18.664;2022-09-09T14:22:16;100261.84;;;29.42;42.06
69772;BME280;57046;45.988;18.664;2022-09-09T14:24:42;100251.91;;;30.15;38.73
69772;BME280;57046;45.988;18.664;2022-09-09T14:27:07;100255.59;;;30.43;37.40
69772;BME280;57046;45.988;18.664;2022-09-09T14:29:32;100256.13;;;30.19;37.46
69772;BME280;57046;45.988;18.664;2022-09-09T14:32:16;100258.88;;;30.50;36.97
69772;BME280;57046;45.988;18.664;2022-09-09T14:35:00;100266.97;;;29.87;38.34
69772;BME280;57046;45.988;18.664;2022-09-09T14:37:26;100262.63;;;29.86;37.65
69772;BME280;57046;45.988;18.664;2022-09-09T14:39:52;100262.03;;;30.70;35.26
69772;BME280;57046;45.988;18.664;2022-09-09T14:42:17;100260.84;;;31.08;34.02
69772;BME280;57046;45.988;18.664;2022-09-09T14:44:43;100259.38;;;30.58;35.10
69772;BME280;57046;45.988;18.664;2022-09-09T14:47:08;100264.88;;;30.00;35.70
69772;BME280;57046;45.988;18.664;2022-09-09T14:49:35;100277.06;;;29.50;38.54
69772;BME280;57046;45.988;18.664;2022-09-09T14:52:01;100279.59;;;29.57;39.15
69772;BME280;57046;45.988;18.664;2022-09-09T14:54:26;100281.34;;;29.07;37.21
69772;BME280;57046;45.988;18.664;2022-09-09T14:56:51;100290.50;;;28.95;39.82
69772;BME280;57046;45.988;18.664;2022-09-09T14:59:17;100284.81;;;28.99;37.81
69772;BME280;57046;45.988;18.664;2022-09-09T15:01:42;100285.00;;;28.70;41.64
69772;BME280;57046;45.988;18.664;2022-09-09T15:04:11;100281.31;;;28.60;38.31
69772;BME280;57046;45.988;18.664;2022-09-09T15:06:37;100290.75;;;28.38;42.14
69772;BME280;57046;45.988;18.664;2022-09-09T15:09:02;100298.00;;;28.10;42.63
69772;BME280;57046;45.988;18.664;2022-09-09T15:11:33;100299.78;;;28.16;40.58
69772;BME280;57046;45.988;18.664;2022-09-09T15:13:59;100280.97;;;28.08;40.40
69772;BME280;57046;45.988;18.664;2022-09-09T15:16:27;100284.91;;;28.23;39.37
69772;BME280;57046;45.988;18.664;2022-09-09T15:18:57;100286.31;;;28.15;41.20
69772;BME280;57046;45.988;18.664;2022-09-09T15:21:27;100278.69;;;27.77;43.67
69772;BME280;57046;45.988;18.664;2022-09-09T15:23:53;100277.22;;;27.73;42.43
69772;BME280;57046;45.988;18.664;2022-09-09T15:26:18;100272.94;;;27.56;42.47
69772;BME280;57046;45.988;18.664;2022-09-09T15:28:45;100275.72;;;27.27;44.64
69772;BME280;57046;45.988;18.664;2022-09-09T15:31:15;100266.38;;;27.21;44.21
69772;BME280;57046;45.988;18.664;2022-09-09T15:33:41;100259.31;;;27.04;44.96
69772;BME280;57046;45.988;18.664;2022-09-09T15:36:14;100248.13;;;27.07;44.32
69772;BME280;57046;45.988;18.664;2022-09-09T15:38:39;100252.00;;;26.77;45.36
69772;BME280;57046;45.988;18.664;2022-09-09T15:41:04;100256.34;;;26.78;47.02
69772;BME280;57046;45.988;18.664;2022-09-09T15:43:30;100252.56;;;26.89;46.61
69772;BME280;57046;45.988;18.664;2022-09-09T15:46:02;100260.25;;;26.81;45.93
69772;BME280;57046;45.988;18.664;2022-09-09T15:48:31;100271.28;;;26.68;43.93
69772;BME280;57046;45.988;18.664;2022-09-09T15:51:03;100260.88;;;26.56;46.70
69772;BME280;57046;45.988;18.664;2022-09-09T15:53:29;100255.25;;;26.76;47.15
69772;BME280;57046;45.988;18.664;2022-09-09T15:55:55;100259.84;;;26.66;48.98
69772;BME280;57046;45.988;18.664;2022-09-09T15:58:20;100260.97;;;26.53;47.10
69772;BME280;57046;45.988;18.664;2022-09-09T16:00:45;100260.78;;;26.44;47.70
69772;BME280;57046;45.988;18.664;2022-09-09T16:03:11;100269.78;;;26.31;47.59
69772;BME280;57046;45.988;18.664;2022-09-09T16:05:36;100273.50;;;26.25;47.98
69772;BME280;57046;45.988;18.664;2022-09-09T16:08:02;100282.03;;;26.14;48.85
69772;BME280;57046;45.988;18.664;2022-09-09T16:10:27;100277.56;;;26.01;47.46
69772;BME280;57046;45.988;18.664;2022-09-09T16:12:52;100272.19;;;25.94;46.41
69772;BME280;57046;45.988;18.664;2022-09-09T16:15:17;100269.34;;;25.97;46.62
69772;BME280;57046;45.988;18.664;2022-09-09T16:17:43;100266.66;;;25.94;46.05
69772;BME280;57046;45.988;18.664;2022-09-09T16:20:08;100256.69;;;25.96;46.23
69772;BME280;57046;45.988;18.664;2022-09-09T16:22:34;100250.97;;;25.87;48.62
69772;BME280;57046;45.988;18.664;2022-09-09T16:24:59;100257.78;;;25.82;46.99
69772;BME280;57046;45.988;18.664;2022-09-09T16:27:24;100230.72;;;25.54;46.59
69772;BME280;57046;45.988;18.664;2022-09-09T16:29:50;100253.19;;;25.56;46.68
69772;BME280;57046;45.988;18.664;2022-09-09T16:32:15;100246.94;;;25.52;46.17
69772;BME280;57046;45.988;18.664;2022-09-09T16:34:40;100249.06;;;25.45;47.07
69772;BME280;57046;45.988;18.664;2022-09-09T16:37:06;100260.34;;;25.34;46.60
69772;BME280;57046;45.988;18.664;2022-09-09T16:39:31;100268.28;;;25.32;46.43
69772;BME280;57046;45.988;18.664;2022-09-09T16:41:56;100261.16;;;25.11;50.19
69772;BME280;57046;45.988;18.664;2022-09-09T16:44:22;100260.00;;;24.89;48.15
69772;BME280;57046;45.988;18.664;2022-09-09T16:46:48;100270.53;;;24.71;51.67
69772;BME280;57046;45.988;18.664;2022-09-09T16:49:14;100267.59;;;24.58;51.60
69772;BME280;57046;45.988;18.664;2022-09-09T16:51:48;100269.00;;;24.43;51.73
69772;BME280;57046;45.988;18.664;2022-09-09T16:54:16;100248.44;;;24.21;50.92
69772;BME280;57046;45.988;18.664;2022-09-09T16:56:43;100255.53;;;24.22;51.93
69772;BME280;57046;45.988;18.664;2022-09-09T16:59:14;100264.72;;;24.12;52.61
69772;BME280;57046;45.988;18.664;2022-09-09T17:01:42;100267.53;;;24.08;54.23
69772;BME280;57046;45.988;18.664;2022-09-09T17:04:11;100278.56;;;24.08;55.45
69772;BME280;57046;45.988;18.664;2022-09-09T17:06:37;100277.47;;;24.02;57.15
69772;BME280;57046;45.988;18.664;2022-09-09T17:09:05;100281.53;;;23.94;56.89
69772;BME280;57046;45.988;18.664;2022-09-09T17:11:31;100266.34;;;23.79;55.41
69772;BME280;57046;45.988;18.664;2022-09-09T17:13:57;100257.13;;;23.59;56.38
69772;BME280;57046;45.988;18.664;2022-09-09T17:16:25;100266.59;;;23.58;57.84
69772;BME280;57046;45.988;18.664;2022-09-09T17:18:51;100269.38;;;23.54;58.79
69772;BME280;57046;45.988;18.664;2022-09-09T17:21:20;100269.38;;;23.54;58.92
69772;BME280;57046;45.988;18.664;2022-09-09T17:23:46;100265.91;;;23.50;60.07
69772;BME280;57046;45.988;18.664;2022-09-09T17:26:15;100255.75;;;23.40;61.42